sensor_id;sensor_type;location;lat;lon;timestamp;P1;durP1;ratioP1;P2;durP2;ratioP2
14060;SDS011;7105;43.616;1.434;2023-02-28T00:00:20;4.37;;;3.97;;
14060;SDS011;7105;43.616;1.434;2023-02-28T00:02:47;6.37;;;4.10;;
14060;SDS011;7105;43.616;1.434;2023-02-28T00:05:13;7.07;;;4.27;;
14060;SDS011;7105;43.616;1.434;2023-02-28T00:07:41;7.17;;;5.10;;
14060;SDS011;7105;43.616;1.434;2023-02-28T00:10:08;7.27;;;4.27;;
14060;SDS011;7105;43.616;1.434;2023-02-28T00:12:35;7.57;;;4.83;;
14060;SDS011;7105;43.616;1.434;2023-02-28T00:15:04;5.33;;;3.70;;
14060;SDS011;7105;43.616;1.434;2023-02-28T00:17:31;6.57;;;4.47;;
14060;SDS011;7105;43.616;1.434;2023-02-28T00:19:56;5.60;;;4.20;;
14060;SDS011;7105;43.616;1.434;2023-02-28T00:22:26;5.97;;;4.07;;
14060;SDS011;7105;43.616;1.434;2023-02-28T00:24:53;6.97;;;4.27;;
14060;SDS011;7105;43.616;1.434;2023-02-28T00:27:18;6.17;;;4.10;;
14060;SDS011;7105;43.616;1.434;2023-02-28T00:29:45;5.27;;;4.77;;
14060;SDS011;7105;43.616;1.434;2023-02-28T00:32:11;6.67;;;4.40;;
14060;SDS011;7105;43.616;1.434;2023-02-28T00:34:37;4.40;;;3.87;;
14060;SDS011;7105;43.616;1.434;2023-02-28T00:37:04;4.77;;;3.10;;
14060;SDS011;7105;43.616;1.434;2023-02-28T00:39:30;6.80;;;4.43;;
14060;SDS011;7105;43.616;1.434;2023-02-28T00:41:57;6.10;;;4.63;;
14060;SDS011;7105;43.616;1.434;2023-02-28T00:44:23;6.27;;;4.43;;
14060;SDS011;7105;43.616;1.434;2023-02-28T00:46:49;5.87;;;4.10;;
14060;SDS011;7105;43.616;1.434;2023-02-28T00:49:14;5.63;;;4.40;;
14060;SDS011;7105;43.616;1.434;2023-02-28T00:51:41;4.93;;;3.93;;
14060;SDS011;7105;43.616;1.434;2023-02-28T00:54:07;5.47;;;4.60;;
14060;SDS011;7105;43.616;1.434;2023-02-28T00:56:32;4.93;;;4.40;;
14060;SDS011;7105;43.616;1.434;2023-02-28T00:58:58;6.53;;;4.20;;
14060;SDS011;7105;43.616;1.434;2023-02-28T01:01:24;6.27;;;4.57;;
14060;SDS011;7105;43.616;1.434;2023-02-28T01:03:49;5.63;;;4.33;;
14060;SDS011;7105;43.616;1.434;2023-02-28T01:06:15;6.30;;;4.63;;
14060;SDS011;7105;43.616;1.434;2023-02-28T01:08:40;5.93;;;4.80;;
14060;SDS011;7105;43.616;1.434;2023-02-28T01:11:07;5.00;;;3.80;;
14060;SDS011;7105;43.616;1.434;2023-02-28T01:13:34;7.20;;;4.40;;
14060;SDS011;7105;43.616;1.434;2023-02-28T01:16:00;8.00;;;4.90;;
14060;SDS011;7105;43.616;1.434;2023-02-28T01:18:25;5.63;;;4.90;;
14060;SDS011;7105;43.616;1.434;2023-02-28T01:20:51;6.37;;;4.57;;
14060;SDS011;7105;43.616;1.434;2023-02-28T01:23:18;5.87;;;4.87;;
14060;SDS011;7105;43.616;1.434;2023-02-28T01:25:45;8.77;;;4.93;;
14060;SDS011;7105;43.616;1.434;2023-02-28T01:28:10;6.77;;;4.47;;
14060;SDS011;7105;43.616;1.434;2023-02-28T01:30:36;7.40;;;5.13;;
14060;SDS011;7105;43.616;1.434;2023-02-28T01:33:02;5.77;;;4.63;;
14060;SDS011;7105;43.616;1.434;2023-02-28T01:35:27;5.83;;;4.37;;
14060;SDS011;7105;43.616;1.434;2023-02-28T01:37:53;5.63;;;4.73;;
14060;SDS011;7105;43.616;1.434;2023-02-28T01:40:19;6.07;;;4.37;;
14060;SDS011;7105;43.616;1.434;2023-02-28T01:42:45;7.90;;;5.20;;
14060;SDS011;7105;43.616;1.434;2023-02-28T01:45:26;2.90;;;2.37;;
14060;SDS011;7105;43.616;1.434;2023-02-28T01:48:03;5.63;;;4.80;;
14060;SDS011;7105;43.616;1.434;2023-02-28T01:50:33;6.40;;;5.27;;
14060;SDS011;7105;43.616;1.434;2023-02-28T01:53:04;6.27;;;4.70;;
14060;SDS011;7105;43.616;1.434;2023-02-28T01:55:31;5.60;;;4.93;;
14060;SDS011;7105;43.616;1.434;2023-02-28T01:57:59;7.60;;;5.23;;
14060;SDS011;7105;43.616;1.434;2023-02-28T02:00:27;5.63;;;4.40;;
14060;SDS011;7105;43.616;1.434;2023-02-28T02:03:04;7.60;;;5.50;;
14060;SDS011;7105;43.616;1.434;2023-02-28T02:05:34;7.07;;;5.07;;
14060;SDS011;7105;43.616;1.434;2023-02-28T02:08:05;7.50;;;4.77;;
14060;SDS011;7105;43.616;1.434;2023-02-28T02:10:40;5.67;;;5.00;;
14060;SDS011;7105;43.616;1.434;2023-02-28T02:20:50;5.50;;;4.87;;
14060;SDS011;7105;43.616;1.434;2023-02-28T02:26:27;6.17;;;4.83;;
14060;SDS011;7105;43.616;1.434;2023-02-28T02:32:16;8.43;;;5.00;;
14060;SDS011;7105;43.616;1.434;2023-02-28T02:40:23;5.73;;;4.93;;
14060;SDS011;7105;43.616;1.434;2023-02-28T02:45:38;7.87;;;5.10;;
14060;SDS011;7105;43.616;1.434;2023-02-28T02:48:09;7.93;;;5.50;;
14060;SDS011;7105;43.616;1.434;2023-02-28T02:50:42;6.87;;;5.20;;
14060;SDS011;7105;43.616;1.434;2023-02-28T02:53:10;6.30;;;5.20;;
14060;SDS011;7105;43.616;1.434;2023-02-28T02:55:40;7.03;;;5.43;;
14060;SDS011;7105;43.616;1.434;2023-02-28T02:58:10;8.27;;;6.30;;
14060;SDS011;7105;43.616;1.434;2023-02-28T03:00:41;7.70;;;5.57;;
14060;SDS011;7105;43.616;1.434;2023-02-28T03:03:13;6.67;;;5.40;;
14060;SDS011;7105;43.616;1.434;2023-02-28T03:05:49;6.53;;;4.37;;
14060;SDS011;7105;43.616;1.434;2023-02-28T03:11:38;9.43;;;5.37;;
14060;SDS011;7105;43.616;1.434;2023-02-28T03:29:59;9.80;;;6.07;;
14060;SDS011;7105;43.616;1.434;2023-02-28T03:32:47;8.67;;;5.67;;
14060;SDS011;7105;43.616;1.434;2023-02-28T03:35:30;7.33;;;5.80;;
14060;SDS011;7105;43.616;1.434;2023-02-28T03:38:19;8.27;;;5.40;;
14060;SDS011;7105;43.616;1.434;2023-02-28T03:40:57;5.97;;;5.23;;
14060;SDS011;7105;43.616;1.434;2023-02-28T03:44:24;5.67;;;4.23;;
14060;SDS011;7105;43.616;1.434;2023-02-28T03:46:47;6.73;;;5.17;;
14060;SDS011;7105;43.616;1.434;2023-02-28T03:49:28;4.73;;;3.57;;
14060;SDS011;7105;43.616;1.434;2023-02-28T03:52:00;6.53;;;5.57;;
14060;SDS011;7105;43.616;1.434;2023-02-28T03:54:31;6.93;;;5.33;;
14060;SDS011;7105;43.616;1.434;2023-02-28T03:57:06;7.43;;;5.90;;
14060;SDS011;7105;43.616;1.434;2023-02-28T03:59:44;6.77;;;5.53;;
14060;SDS011;7105;43.616;1.434;2023-02-28T04:02:13;8.70;;;5.63;;
14060;SDS011;7105;43.616;1.434;2023-02-28T04:04:39;8.37;;;6.17;;
14060;SDS011;7105;43.616;1.434;2023-02-28T04:07:13;9.10;;;5.83;;
14060;SDS011;7105;43.616;1.434;2023-02-28T04:09:39;7.17;;;5.40;;
14060;SDS011;7105;43.616;1.434;2023-02-28T04:12:05;7.90;;;5.90;;
14060;SDS011;7105;43.616;1.434;2023-02-28T04:14:31;6.70;;;5.80;;
14060;SDS011;7105;43.616;1.434;2023-02-28T04:16:57;7.10;;;5.10;;
14060;SDS011;7105;43.616;1.434;2023-02-28T04:19:22;7.80;;;5.50;;
14060;SDS011;7105;43.616;1.434;2023-02-28T04:21:49;5.17;;;3.47;;
14060;SDS011;7105;43.616;1.434;2023-02-28T04:24:18;7.10;;;5.50;;
14060;SDS011;7105;43.616;1.434;2023-02-28T04:26:46;8.03;;;5.67;;
14060;SDS011;7105;43.616;1.434;2023-02-28T04:29:17;7.13;;;6.07;;
14060;SDS011;7105;43.616;1.434;2023-02-28T04:31:50;7.20;;;5.90;;
14060;SDS011;7105;43.616;1.434;2023-02-28T04:34:22;8.33;;;6.03;;
14060;SDS011;7105;43.616;1.434;2023-02-28T04:36:49;8.03;;;5.70;;
14060;SDS011;7105;43.616;1.434;2023-02-28T04:39:16;8.17;;;5.70;;
14060;SDS011;7105;43.616;1.434;2023-02-28T04:41:43;6.07;;;5.00;;
14060;SDS011;7105;43.616;1.434;2023-02-28T04:44:10;7.00;;;5.70;;
14060;SDS011;7105;43.616;1.434;2023-02-28T04:46:36;7.97;;;6.07;;
14060;SDS011;7105;43.616;1.434;2023-02-28T04:49:01;9.60;;;6.07;;
14060;SDS011;7105;43.616;1.434;2023-02-28T04:51:27;9.87;;;6.50;;
14060;SDS011;7105;43.616;1.434;2023-02-28T04:53:53;8.03;;;5.93;;
14060;SDS011;7105;43.616;1.434;2023-02-28T04:56:19;7.03;;;5.90;;
14060;SDS011;7105;43.616;1.434;2023-02-28T04:58:45;6.23;;;5.00;;
14060;SDS011;7105;43.616;1.434;2023-02-28T05:03:40;9.20;;;5.97;;
14060;SDS011;7105;43.616;1.434;2023-02-28T05:06:06;8.23;;;5.83;;
14060;SDS011;7105;43.616;1.434;2023-02-28T05:08:33;8.00;;;6.00;;
14060;SDS011;7105;43.616;1.434;2023-02-28T05:10:59;8.00;;;5.73;;
14060;SDS011;7105;43.616;1.434;2023-02-28T05:13:25;8.97;;;5.87;;
14060;SDS011;7105;43.616;1.434;2023-02-28T05:15:51;5.87;;;4.67;;
14060;SDS011;7105;43.616;1.434;2023-02-28T05:18:17;7.63;;;5.83;;
14060;SDS011;7105;43.616;1.434;2023-02-28T05:20:43;3.67;;;3.23;;
14060;SDS011;7105;43.616;1.434;2023-02-28T05:23:10;6.53;;;5.50;;
14060;SDS011;7105;43.616;1.434;2023-02-28T05:25:37;7.33;;;6.00;;
14060;SDS011;7105;43.616;1.434;2023-02-28T05:28:04;9.90;;;6.37;;
14060;SDS011;7105;43.616;1.434;2023-02-28T05:30:30;7.43;;;5.80;;
14060;SDS011;7105;43.616;1.434;2023-02-28T05:32:57;10.47;;;6.17;;
14060;SDS011;7105;43.616;1.434;2023-02-28T05:35:23;9.80;;;6.83;;
14060;SDS011;7105;43.616;1.434;2023-02-28T05:37:51;8.90;;;6.07;;
14060;SDS011;7105;43.616;1.434;2023-02-28T05:40:17;9.60;;;6.47;;
14060;SDS011;7105;43.616;1.434;2023-02-28T05:42:45;9.87;;;6.40;;
14060;SDS011;7105;43.616;1.434;2023-02-28T05:45:11;12.70;;;6.37;;
14060;SDS011;7105;43.616;1.434;2023-02-28T05:47:37;12.13;;;6.97;;
14060;SDS011;7105;43.616;1.434;2023-02-28T05:50:03;7.50;;;6.40;;
14060;SDS011;7105;43.616;1.434;2023-02-28T05:52:29;9.50;;;6.47;;
14060;SDS011;7105;43.616;1.434;2023-02-28T05:54:55;8.33;;;6.53;;
14060;SDS011;7105;43.616;1.434;2023-02-28T05:57:21;8.67;;;6.30;;
14060;SDS011;7105;43.616;1.434;2023-02-28T05:59:47;9.80;;;6.53;;
14060;SDS011;7105;43.616;1.434;2023-02-28T06:02:14;10.23;;;7.47;;
14060;SDS011;7105;43.616;1.434;2023-02-28T06:04:41;10.87;;;6.83;;
14060;SDS011;7105;43.616;1.434;2023-02-28T06:07:08;10.20;;;6.87;;
14060;SDS011;7105;43.616;1.434;2023-02-28T06:09:34;10.47;;;7.03;;
14060;SDS011;7105;43.616;1.434;2023-02-28T06:12:01;11.40;;;7.30;;
14060;SDS011;7105;43.616;1.434;2023-02-28T06:14:30;11.00;;;7.07;;
14060;SDS011;7105;43.616;1.434;2023-02-28T06:16:57;13.73;;;7.10;;
14060;SDS011;7105;43.616;1.434;2023-02-28T06:19:23;10.33;;;7.40;;
14060;SDS011;7105;43.616;1.434;2023-02-28T06:21:50;9.63;;;7.43;;
14060;SDS011;7105;43.616;1.434;2023-02-28T06:24:18;10.57;;;7.70;;
14060;SDS011;7105;43.616;1.434;2023-02-28T06:26:44;11.63;;;7.40;;
14060;SDS011;7105;43.616;1.434;2023-02-28T06:29:10;9.13;;;6.57;;
14060;SDS011;7105;43.616;1.434;2023-02-28T06:31:36;10.50;;;7.13;;
14060;SDS011;7105;43.616;1.434;2023-02-28T06:34:03;10.53;;;7.43;;
14060;SDS011;7105;43.616;1.434;2023-02-28T06:36:29;10.83;;;7.17;;
14060;SDS011;7105;43.616;1.434;2023-02-28T06:38:55;11.07;;;7.00;;
14060;SDS011;7105;43.616;1.434;2023-02-28T06:41:22;10.00;;;7.43;;
14060;SDS011;7105;43.616;1.434;2023-02-28T06:43:51;9.23;;;7.17;;
14060;SDS011;7105;43.616;1.434;2023-02-28T06:46:17;12.53;;;7.87;;
14060;SDS011;7105;43.616;1.434;2023-02-28T06:48:43;10.07;;;6.30;;
14060;SDS011;7105;43.616;1.434;2023-02-28T06:51:11;10.47;;;6.87;;
14060;SDS011;7105;43.616;1.434;2023-02-28T06:53:42;10.40;;;6.93;;
14060;SDS011;7105;43.616;1.434;2023-02-28T06:56:09;11.53;;;7.83;;
14060;SDS011;7105;43.616;1.434;2023-02-28T06:58:37;11.80;;;7.87;;
14060;SDS011;7105;43.616;1.434;2023-02-28T07:01:04;11.20;;;7.27;;
14060;SDS011;7105;43.616;1.434;2023-02-28T07:03:30;11.40;;;7.73;;
14060;SDS011;7105;43.616;1.434;2023-02-28T07:05:56;7.80;;;5.13;;
14060;SDS011;7105;43.616;1.434;2023-02-28T07:08:23;9.50;;;6.40;;
14060;SDS011;7105;43.616;1.434;2023-02-28T07:10:52;10.07;;;7.27;;
14060;SDS011;7105;43.616;1.434;2023-02-28T07:13:19;10.47;;;7.57;;
14060;SDS011;7105;43.616;1.434;2023-02-28T07:15:52;10.47;;;6.57;;
14060;SDS011;7105;43.616;1.434;2023-02-28T07:18:21;10.27;;;7.13;;
14060;SDS011;7105;43.616;1.434;2023-02-28T07:20:47;10.57;;;6.83;;
14060;SDS011;7105;43.616;1.434;2023-02-28T07:23:13;10.73;;;7.53;;
14060;SDS011;7105;43.616;1.434;2023-02-28T07:25:39;9.80;;;6.70;;
14060;SDS011;7105;43.616;1.434;2023-02-28T07:28:04;10.80;;;8.00;;
14060;SDS011;7105;43.616;1.434;2023-02-28T07:30:30;9.40;;;7.03;;
14060;SDS011;7105;43.616;1.434;2023-02-28T07:32:56;13.77;;;7.20;;
14060;SDS011;7105;43.616;1.434;2023-02-28T07:35:22;9.40;;;6.43;;
14060;SDS011;7105;43.616;1.434;2023-02-28T07:37:48;9.10;;;7.63;;
14060;SDS011;7105;43.616;1.434;2023-02-28T07:40:14;10.93;;;7.40;;
14060;SDS011;7105;43.616;1.434;2023-02-28T07:42:40;9.80;;;7.40;;
14060;SDS011;7105;43.616;1.434;2023-02-28T07:45:07;13.33;;;7.87;;
14060;SDS011;7105;43.616;1.434;2023-02-28T07:47:36;14.80;;;8.10;;
14060;SDS011;7105;43.616;1.434;2023-02-28T07:50:06;11.23;;;7.13;;
14060;SDS011;7105;43.616;1.434;2023-02-28T07:52:33;9.80;;;7.97;;
14060;SDS011;7105;43.616;1.434;2023-02-28T07:54:59;11.70;;;7.80;;
14060;SDS011;7105;43.616;1.434;2023-02-28T07:57:25;13.57;;;8.00;;
14060;SDS011;7105;43.616;1.434;2023-02-28T07:59:50;15.47;;;9.50;;
14060;SDS011;7105;43.616;1.434;2023-02-28T08:02:17;9.17;;;7.47;;
14060;SDS011;7105;43.616;1.434;2023-02-28T08:04:43;9.63;;;7.70;;
14060;SDS011;7105;43.616;1.434;2023-02-28T08:07:09;9.40;;;7.57;;
14060;SDS011;7105;43.616;1.434;2023-02-28T08:09:38;12.20;;;7.50;;
14060;SDS011;7105;43.616;1.434;2023-02-28T08:12:04;8.53;;;7.50;;
14060;SDS011;7105;43.616;1.434;2023-02-28T08:14:30;8.40;;;7.10;;
14060;SDS011;7105;43.616;1.434;2023-02-28T08:16:56;10.03;;;7.60;;
14060;SDS011;7105;43.616;1.434;2023-02-28T08:19:22;9.80;;;7.37;;
14060;SDS011;7105;43.616;1.434;2023-02-28T08:21:47;8.47;;;7.67;;
14060;SDS011;7105;43.616;1.434;2023-02-28T08:24:13;8.00;;;6.60;;
14060;SDS011;7105;43.616;1.434;2023-02-28T08:26:39;10.27;;;6.37;;
14060;SDS011;7105;43.616;1.434;2023-02-28T08:29:04;10.60;;;6.47;;
14060;SDS011;7105;43.616;1.434;2023-02-28T08:31:30;6.87;;;6.13;;
14060;SDS011;7105;43.616;1.434;2023-02-28T08:33:56;6.37;;;5.77;;
14060;SDS011;7105;43.616;1.434;2023-02-28T08:36:23;6.80;;;5.83;;
14060;SDS011;7105;43.616;1.434;2023-02-28T08:38:50;8.17;;;6.20;;
14060;SDS011;7105;43.616;1.434;2023-02-28T08:41:15;7.00;;;6.30;;
14060;SDS011;7105;43.616;1.434;2023-02-28T08:43:41;7.33;;;6.07;;
14060;SDS011;7105;43.616;1.434;2023-02-28T08:46:07;6.83;;;6.17;;
14060;SDS011;7105;43.616;1.434;2023-02-28T08:48:35;8.73;;;6.90;;
14060;SDS011;7105;43.616;1.434;2023-02-28T08:51:07;8.40;;;6.53;;
14060;SDS011;7105;43.616;1.434;2023-02-28T08:53:43;9.30;;;6.77;;
14060;SDS011;7105;43.616;1.434;2023-02-28T08:56:10;8.97;;;6.27;;
14060;SDS011;7105;43.616;1.434;2023-02-28T08:58:38;8.33;;;6.43;;
14060;SDS011;7105;43.616;1.434;2023-02-28T09:01:08;7.77;;;6.10;;
14060;SDS011;7105;43.616;1.434;2023-02-28T09:03:38;7.17;;;5.90;;
14060;SDS011;7105;43.616;1.434;2023-02-28T09:06:04;4.87;;;4.30;;
14060;SDS011;7105;43.616;1.434;2023-02-28T09:08:30;8.10;;;6.20;;
14060;SDS011;7105;43.616;1.434;2023-02-28T09:10:56;6.73;;;5.60;;
14060;SDS011;7105;43.616;1.434;2023-02-28T09:13:23;7.07;;;6.33;;
14060;SDS011;7105;43.616;1.434;2023-02-28T09:15:50;9.43;;;6.27;;
14060;SDS011;7105;43.616;1.434;2023-02-28T09:18:15;6.80;;;5.43;;
14060;SDS011;7105;43.616;1.434;2023-02-28T09:20:42;7.80;;;6.20;;
14060;SDS011;7105;43.616;1.434;2023-02-28T09:23:09;9.77;;;6.63;;
14060;SDS011;7105;43.616;1.434;2023-02-28T09:25:36;7.43;;;5.63;;
14060;SDS011;7105;43.616;1.434;2023-02-28T09:28:02;5.40;;;4.87;;
14060;SDS011;7105;43.616;1.434;2023-02-28T09:30:28;4.77;;;3.40;;
14060;SDS011;7105;43.616;1.434;2023-02-28T09:32:54;7.47;;;5.90;;
14060;SDS011;7105;43.616;1.434;2023-02-28T09:35:21;6.53;;;5.83;;
14060;SDS011;7105;43.616;1.434;2023-02-28T09:37:48;5.13;;;3.77;;
14060;SDS011;7105;43.616;1.434;2023-02-28T09:40:14;3.97;;;3.00;;
14060;SDS011;7105;43.616;1.434;2023-02-28T09:42:45;7.23;;;6.30;;
14060;SDS011;7105;43.616;1.434;2023-02-28T09:45:23;3.73;;;3.37;;
14060;SDS011;7105;43.616;1.434;2023-02-28T09:47:50;7.97;;;5.57;;
14060;SDS011;7105;43.616;1.434;2023-02-28T09:53:03;9.57;;;6.10;;
14060;SDS011;7105;43.616;1.434;2023-02-28T09:55:42;6.07;;;3.60;;
14060;SDS011;7105;43.616;1.434;2023-02-28T09:58:17;5.30;;;3.30;;
14060;SDS011;7105;43.616;1.434;2023-02-28T10:00:56;5.30;;;3.90;;
14060;SDS011;7105;43.616;1.434;2023-02-28T10:03:30;6.97;;;4.77;;
14060;SDS011;7105;43.616;1.434;2023-02-28T10:06:08;8.30;;;5.40;;
14060;SDS011;7105;43.616;1.434;2023-02-28T10:08:38;6.60;;;5.33;;
14060;SDS011;7105;43.616;1.434;2023-02-28T10:11:11;6.33;;;4.97;;
14060;SDS011;7105;43.616;1.434;2023-02-28T10:19:02;8.30;;;4.90;;
14060;SDS011;7105;43.616;1.434;2023-02-28T10:21:41;5.83;;;4.40;;
14060;SDS011;7105;43.616;1.434;2023-02-28T10:24:39;6.27;;;4.87;;
14060;SDS011;7105;43.616;1.434;2023-02-28T10:27:22;7.20;;;4.73;;
14060;SDS011;7105;43.616;1.434;2023-02-28T10:29:50;6.17;;;3.43;;
14060;SDS011;7105;43.616;1.434;2023-02-28T10:32:18;6.00;;;4.77;;
14060;SDS011;7105;43.616;1.434;2023-02-28T10:34:57;6.53;;;5.07;;
14060;SDS011;7105;43.616;1.434;2023-02-28T10:37:24;7.87;;;6.20;;
14060;SDS011;7105;43.616;1.434;2023-02-28T10:39:50;4.93;;;3.60;;
14060;SDS011;7105;43.616;1.434;2023-02-28T10:42:20;5.60;;;3.70;;
14060;SDS011;7105;43.616;1.434;2023-02-28T10:45:05;6.87;;;4.37;;
14060;SDS011;7105;43.616;1.434;2023-02-28T10:47:31;7.60;;;5.20;;
14060;SDS011;7105;43.616;1.434;2023-02-28T10:49:59;7.30;;;5.17;;
14060;SDS011;7105;43.616;1.434;2023-02-28T10:52:35;8.37;;;6.27;;
14060;SDS011;7105;43.616;1.434;2023-02-28T10:55:19;6.80;;;5.60;;
14060;SDS011;7105;43.616;1.434;2023-02-28T10:57:48;8.00;;;5.90;;
14060;SDS011;7105;43.616;1.434;2023-02-28T11:00:16;10.97;;;6.37;;
14060;SDS011;7105;43.616;1.434;2023-02-28T11:02:42;7.73;;;4.47;;
14060;SDS011;7105;43.616;1.434;2023-02-28T11:07:54;8.47;;;6.47;;
14060;SDS011;7105;43.616;1.434;2023-02-28T11:10:30;8.00;;;5.47;;
14060;SDS011;7105;43.616;1.434;2023-02-28T11:13:00;9.17;;;6.60;;
14060;SDS011;7105;43.616;1.434;2023-02-28T11:15:28;8.43;;;6.83;;
14060;SDS011;7105;43.616;1.434;2023-02-28T11:20:36;8.93;;;6.40;;
14060;SDS011;7105;43.616;1.434;2023-02-28T11:23:03;6.83;;;5.53;;
14060;SDS011;7105;43.616;1.434;2023-02-28T11:25:31;10.50;;;6.77;;
14060;SDS011;7105;43.616;1.434;2023-02-28T11:28:23;9.97;;;6.67;;
14060;SDS011;7105;43.616;1.434;2023-02-28T11:31:00;9.73;;;6.20;;
14060;SDS011;7105;43.616;1.434;2023-02-28T11:33:44;8.57;;;6.87;;
14060;SDS011;7105;43.616;1.434;2023-02-28T11:36:23;8.70;;;6.30;;
14060;SDS011;7105;43.616;1.434;2023-02-28T11:38:52;6.40;;;4.63;;
14060;SDS011;7105;43.616;1.434;2023-02-28T12:11:19;8.20;;;4.80;;
14060;SDS011;7105;43.616;1.434;2023-02-28T12:28:20;7.37;;;5.23;;
14060;SDS011;7105;43.616;1.434;2023-02-28T12:31:09;8.23;;;5.50;;
14060;SDS011;7105;43.616;1.434;2023-02-28T12:33:43;7.77;;;5.77;;
14060;SDS011;7105;43.616;1.434;2023-02-28T12:36:16;9.17;;;6.27;;
14060;SDS011;7105;43.616;1.434;2023-02-28T12:39:00;7.47;;;5.33;;
14060;SDS011;7105;43.616;1.434;2023-02-28T12:41:44;9.53;;;5.93;;
14060;SDS011;7105;43.616;1.434;2023-02-28T12:44:17;7.63;;;6.10;;
14060;SDS011;7105;43.616;1.434;2023-02-28T12:47:01;7.77;;;6.47;;
14060;SDS011;7105;43.616;1.434;2023-02-28T12:49:37;8.27;;;6.47;;
14060;SDS011;7105;43.616;1.434;2023-02-28T12:52:07;6.10;;;4.93;;
14060;SDS011;7105;43.616;1.434;2023-02-28T12:59:56;8.70;;;6.17;;
14060;SDS011;7105;43.616;1.434;2023-02-28T13:09:59;7.87;;;5.17;;
14060;SDS011;7105;43.616;1.434;2023-02-28T13:12:27;9.37;;;6.57;;
14060;SDS011;7105;43.616;1.434;2023-02-28T13:17:48;8.77;;;4.57;;
14060;SDS011;7105;43.616;1.434;2023-02-28T13:20:20;7.37;;;5.80;;
14060;SDS011;7105;43.616;1.434;2023-02-28T13:22:52;7.77;;;4.63;;
14060;SDS011;7105;43.616;1.434;2023-02-28T13:27:51;6.13;;;4.57;;
14060;SDS011;7105;43.616;1.434;2023-02-28T13:33:29;6.40;;;4.70;;
14060;SDS011;7105;43.616;1.434;2023-02-28T13:36:10;5.30;;;3.97;;
14060;SDS011;7105;43.616;1.434;2023-02-28T13:39:00;6.23;;;5.23;;
14060;SDS011;7105;43.616;1.434;2023-02-28T13:46:31;6.87;;;5.07;;
14060;SDS011;7105;43.616;1.434;2023-02-28T14:05:34;5.00;;;3.43;;
14060;SDS011;7105;43.616;1.434;2023-02-28T14:08:20;5.03;;;4.50;;
14060;SDS011;7105;43.616;1.434;2023-02-28T14:10:49;5.40;;;3.83;;
14060;SDS011;7105;43.616;1.434;2023-02-28T14:13:38;5.20;;;4.23;;
14060;SDS011;7105;43.616;1.434;2023-02-28T14:16:10;6.63;;;4.87;;
14060;SDS011;7105;43.616;1.434;2023-02-28T14:18:40;6.40;;;5.10;;
14060;SDS011;7105;43.616;1.434;2023-02-28T14:21:21;6.33;;;5.20;;
14060;SDS011;7105;43.616;1.434;2023-02-28T14:26:43;6.83;;;4.27;;
14060;SDS011;7105;43.616;1.434;2023-02-28T14:37:41;6.10;;;4.27;;
14060;SDS011;7105;43.616;1.434;2023-02-28T14:40:14;8.03;;;4.67;;
14060;SDS011;7105;43.616;1.434;2023-02-28T14:42:46;4.03;;;3.63;;
14060;SDS011;7105;43.616;1.434;2023-02-28T14:45:19;8.67;;;5.20;;
14060;SDS011;7105;43.616;1.434;2023-02-28T14:47:48;3.93;;;2.90;;
14060;SDS011;7105;43.616;1.434;2023-02-28T14:50:19;6.83;;;4.33;;
14060;SDS011;7105;43.616;1.434;2023-02-28T14:52:46;6.73;;;4.80;;
14060;SDS011;7105;43.616;1.434;2023-02-28T14:55:17;4.87;;;4.30;;
14060;SDS011;7105;43.616;1.434;2023-02-28T14:57:54;4.90;;;4.03;;
14060;SDS011;7105;43.616;1.434;2023-02-28T15:00:26;6.27;;;4.30;;
14060;SDS011;7105;43.616;1.434;2023-02-28T15:02:54;5.07;;;3.53;;
14060;SDS011;7105;43.616;1.434;2023-02-28T15:05:23;5.30;;;3.67;;
14060;SDS011;7105;43.616;1.434;2023-02-28T15:08:14;4.53;;;3.93;;
14060;SDS011;7105;43.616;1.434;2023-02-28T15:10:44;5.43;;;4.70;;
14060;SDS011;7105;43.616;1.434;2023-02-28T15:13:22;6.93;;;4.73;;
14060;SDS011;7105;43.616;1.434;2023-02-28T15:15:53;4.13;;;3.47;;
14060;SDS011;7105;43.616;1.434;2023-02-28T15:18:27;5.63;;;4.43;;
14060;SDS011;7105;43.616;1.434;2023-02-28T15:20:58;4.17;;;3.23;;
14060;SDS011;7105;43.616;1.434;2023-02-28T15:23:28;5.97;;;3.60;;
14060;SDS011;7105;43.616;1.434;2023-02-28T15:25:55;3.37;;;2.67;;
14060;SDS011;7105;43.616;1.434;2023-02-28T15:28:21;7.07;;;5.00;;
14060;SDS011;7105;43.616;1.434;2023-02-28T15:30:53;3.40;;;2.80;;
14060;SDS011;7105;43.616;1.434;2023-02-28T15:33:25;6.60;;;4.67;;
14060;SDS011;7105;43.616;1.434;2023-02-28T15:36:05;5.13;;;3.23;;
14060;SDS011;7105;43.616;1.434;2023-02-28T15:38:37;4.63;;;3.67;;
14060;SDS011;7105;43.616;1.434;2023-02-28T15:41:03;7.00;;;4.40;;
14060;SDS011;7105;43.616;1.434;2023-02-28T15:43:36;6.93;;;4.40;;
14060;SDS011;7105;43.616;1.434;2023-02-28T15:46:11;8.33;;;4.47;;
14060;SDS011;7105;43.616;1.434;2023-02-28T15:51:19;7.40;;;3.73;;
14060;SDS011;7105;43.616;1.434;2023-02-28T15:53:48;8.53;;;5.27;;
14060;SDS011;7105;43.616;1.434;2023-02-28T15:56:25;4.67;;;3.60;;
14060;SDS011;7105;43.616;1.434;2023-02-28T15:59:45;5.63;;;3.83;;
14060;SDS011;7105;43.616;1.434;2023-02-28T16:04:35;6.33;;;3.77;;
14060;SDS011;7105;43.616;1.434;2023-02-28T16:07:19;4.70;;;3.77;;
14060;SDS011;7105;43.616;1.434;2023-02-28T16:09:45;5.30;;;3.73;;
14060;SDS011;7105;43.616;1.434;2023-02-28T16:12:12;5.83;;;3.67;;
14060;SDS011;7105;43.616;1.434;2023-02-28T16:14:38;5.33;;;3.73;;
14060;SDS011;7105;43.616;1.434;2023-02-28T16:17:06;5.40;;;4.17;;
14060;SDS011;7105;43.616;1.434;2023-02-28T16:19:41;8.47;;;4.60;;
14060;SDS011;7105;43.616;1.434;2023-02-28T16:22:08;5.60;;;3.70;;
14060;SDS011;7105;43.616;1.434;2023-02-28T16:24:34;5.70;;;3.53;;
14060;SDS011;7105;43.616;1.434;2023-02-28T16:27:00;6.17;;;4.80;;
14060;SDS011;7105;43.616;1.434;2023-02-28T16:29:27;3.90;;;3.43;;
14060;SDS011;7105;43.616;1.434;2023-02-28T16:31:57;5.33;;;3.40;;
14060;SDS011;7105;43.616;1.434;2023-02-28T16:34:24;6.17;;;4.10;;
14060;SDS011;7105;43.616;1.434;2023-02-28T16:36:49;4.43;;;3.53;;
14060;SDS011;7105;43.616;1.434;2023-02-28T16:39:16;5.03;;;3.70;;
14060;SDS011;7105;43.616;1.434;2023-02-28T16:41:42;7.43;;;4.13;;
14060;SDS011;7105;43.616;1.434;2023-02-28T16:44:13;5.87;;;4.67;;
14060;SDS011;7105;43.616;1.434;2023-02-28T16:46:53;6.73;;;4.23;;
14060;SDS011;7105;43.616;1.434;2023-02-28T16:49:19;5.70;;;4.67;;
14060;SDS011;7105;43.616;1.434;2023-02-28T16:51:45;5.90;;;4.50;;
14060;SDS011;7105;43.616;1.434;2023-02-28T16:54:11;5.80;;;4.63;;
14060;SDS011;7105;43.616;1.434;2023-02-28T16:56:37;6.70;;;5.30;;
14060;SDS011;7105;43.616;1.434;2023-02-28T16:59:08;7.60;;;4.80;;
14060;SDS011;7105;43.616;1.434;2023-02-28T17:01:35;6.23;;;4.23;;
14060;SDS011;7105;43.616;1.434;2023-02-28T17:04:00;5.83;;;4.73;;
14060;SDS011;7105;43.616;1.434;2023-02-28T17:06:27;5.80;;;3.33;;
14060;SDS011;7105;43.616;1.434;2023-02-28T17:08:54;5.80;;;4.90;;
14060;SDS011;7105;43.616;1.434;2023-02-28T17:11:20;4.77;;;3.70;;
14060;SDS011;7105;43.616;1.434;2023-02-28T17:13:47;5.20;;;3.83;;
14060;SDS011;7105;43.616;1.434;2023-02-28T17:16:15;5.83;;;4.23;;
14060;SDS011;7105;43.616;1.434;2023-02-28T17:18:42;3.83;;;3.23;;
14060;SDS011;7105;43.616;1.434;2023-02-28T17:21:15;6.87;;;4.53;;
14060;SDS011;7105;43.616;1.434;2023-02-28T17:23:41;2.60;;;2.07;;
14060;SDS011;7105;43.616;1.434;2023-02-28T17:26:12;6.17;;;3.77;;
14060;SDS011;7105;43.616;1.434;2023-02-28T17:28:45;8.00;;;4.83;;
14060;SDS011;7105;43.616;1.434;2023-02-28T17:31:12;7.47;;;3.97;;
14060;SDS011;7105;43.616;1.434;2023-02-28T17:33:37;6.40;;;3.63;;
14060;SDS011;7105;43.616;1.434;2023-02-28T17:36:03;8.63;;;5.27;;
14060;SDS011;7105;43.616;1.434;2023-02-28T17:38:29;8.90;;;5.37;;
14060;SDS011;7105;43.616;1.434;2023-02-28T17:40:55;7.60;;;5.07;;
14060;SDS011;7105;43.616;1.434;2023-02-28T17:43:25;7.77;;;4.83;;
14060;SDS011;7105;43.616;1.434;2023-02-28T17:45:51;7.27;;;5.30;;
14060;SDS011;7105;43.616;1.434;2023-02-28T17:48:18;5.83;;;4.77;;
14060;SDS011;7105;43.616;1.434;2023-02-28T17:50:44;7.13;;;4.80;;
14060;SDS011;7105;43.616;1.434;2023-02-28T17:53:09;7.10;;;5.20;;
14060;SDS011;7105;43.616;1.434;2023-02-28T17:55:35;7.73;;;5.07;;